Time;durP1;ratioP1;P1;durP2;ratioP2;P2;SDS_P1;SDS_P2;PMS_P1;PMS_P2;Temp;Humidity;BMP_temperature;BMP_pressure;BME280_temperature;BME280_humidity;BME280_pressure;Samples;Min_cycle;Max_cycle;Signal;HPM_P1;HPM_P2
2024/03/10 00:02:12;;;;;;;4.63;2.90;;;;;;;10.88;52.34;154153.31;5039728;28;20814;-75
2024/03/10 00:04:41;;;;;;;3.17;2.57;;;;;;;10.91;52.60;154162.34;5040860;28;20486;-75
2024/03/10 00:07:07;;;;;;;3.50;2.87;;;;;;;10.86;53.69;154148.09;5018857;28;20985;-75
2024/03/10 00:09:34;;;;;;;3.33;2.50;;;;;;;10.86;53.95;154149.41;5041108;28;20455;-75
2024/03/10 00:12:00;;;;;;;3.50;2.60;;;;;;;10.87;54.42;154152.03;5036008;28;20978;-75
2024/03/10 00:14:28;;;;;;;4.20;3.30;;;;;;;10.83;54.85;154140.31;5018256;28;20973;-75
2024/03/10 00:16:55;;;;;;;3.40;3.10;;;;;;;10.89;55.57;154157.19;5040645;28;20460;-75
2024/03/10 00:19:22;;;;;;;3.80;3.07;;;;;;;10.90;54.93;154158.50;5023029;28;20448;-75
2024/03/10 00:21:48;;;;;;;3.87;2.90;;;;;;;10.83;55.32;154141.63;5043287;28;20467;-75
2024/03/10 00:24:15;;;;;;;3.90;2.83;;;;;;;10.83;55.70;154140.31;5042026;28;20516;-75
2024/03/10 00:26:42;;;;;;;3.63;3.20;;;;;;;10.79;56.03;154131.28;5038903;28;20497;-74
2024/03/10 00:29:09;;;;;;;4.03;3.10;;;;;;;10.74;55.90;154118.34;5022551;28;21145;-75
2024/03/10 00:31:37;;;;;;;3.90;2.70;;;;;;;10.73;56.30;154115.75;5018080;28;20440;-74
2024/03/10 00:34:05;;;;;;;3.90;2.90;;;;;;;10.71;56.10;154110.56;5037626;28;20443;-75
2024/03/10 00:36:32;;;;;;;4.70;3.10;;;;;;;10.76;56.38;154122.22;5037681;28;20653;-74
2024/03/10 00:38:58;;;;;;;4.50;3.30;;;;;;;10.70;56.44;154106.66;5040129;28;20569;-75
2024/03/10 00:41:31;;;;;;;3.83;3.10;;;;;;;10.69;56.79;154105.41;5022123;28;20459;-75
2024/03/10 00:44:00;;;;;;;4.50;3.67;;;;;;;10.72;56.99;154113.13;5035145;28;20423;-75
2024/03/10 00:46:28;;;;;;;4.50;3.57;;;;;;;10.76;58.05;154123.53;5043152;28;21155;-75
2024/03/10 00:48:56;;;;;;;4.73;3.30;;;;;;;10.70;57.51;154106.66;5038500;28;20993;-75
2024/03/10 00:51:25;;;;;;;4.60;4.07;;;;;;;10.63;58.40;154089.84;5020395;28;20814;-75
2024/03/10 00:53:56;;;;;;;3.77;3.37;;;;;;;10.61;60.12;154084.69;5019767;28;20820;-75
2024/03/10 00:56:23;;;;;;;4.30;3.60;;;;;;;10.52;59.16;154061.34;5040303;28;20508;-75
2024/03/10 00:58:49;;;;;;;4.03;3.60;;;;;;;10.58;59.37;154075.59;5045400;28;20450;-75
2024/03/10 01:01:16;;;;;;;4.77;4.20;;;;;;;10.58;59.13;154075.59;5026585;28;20491;-74
2024/03/10 01:03:42;;;;;;;4.70;3.60;;;;;;;10.60;59.52;154082.06;5031344;28;20460;-74
2024/03/10 01:06:12;;;;;;;6.73;3.97;;;;;;;10.50;60.15;154054.88;4998566;28;1184644;-75
2024/03/10 01:08:38;;;;;;;4.70;3.77;;;;;;;10.46;61.15;154045.81;5037334;28;20237;-75
2024/03/10 01:11:06;;;;;;;5.30;4.00;;;;;;;10.36;61.38;154019.94;5039811;28;20519;-75
2024/03/10 01:13:32;;;;;;;4.70;3.77;;;;;;;10.32;62.74;154009.59;5038416;28;20458;-75
2024/03/10 01:15:59;;;;;;;6.40;4.30;;;;;;;10.26;62.85;153994.03;5022090;28;20439;-76
2024/03/10 01:18:25;;;;;;;4.10;3.70;;;;;;;10.19;64.00;153977.19;5020076;28;20997;-76
2024/03/10 01:20:52;;;;;;;4.90;3.87;;;;;;;10.18;62.53;153973.34;5039312;28;20505;-76
2024/03/10 01:23:20;;;;;;;4.00;3.50;;;;;;;10.27;60.73;153997.91;5020919;28;20501;-76
2024/03/10 01:25:47;;;;;;;4.57;3.53;;;;;;;10.27;61.11;153997.91;5026582;28;20453;-76
2024/03/10 01:28:14;;;;;;;5.30;3.50;;;;;;;10.24;61.11;153988.88;5036204;28;20898;-76
2024/03/10 01:30:41;;;;;;;5.60;4.43;;;;;;;10.15;61.08;153966.88;5038450;28;20447;-75
2024/03/10 01:33:08;;;;;;;3.50;3.00;;;;;;;10.16;60.57;153968.16;5036826;28;20459;-75
2024/03/10 01:35:34;;;;;;;4.33;3.50;;;;;;;10.12;60.91;153957.72;5036219;28;21049;-75
2024/03/10 01:38:01;;;;;;;5.20;4.23;;;;;;;10.11;60.74;153955.19;5038284;28;20459;-75
2024/03/10 01:40:29;;;;;;;5.07;3.80;;;;;;;10.07;61.98;153944.81;5038456;28;20439;-75
2024/03/10 01:42:55;;;;;;;3.73;3.00;;;;;;;10.03;60.47;153934.47;5038164;28;20464;-75
2024/03/10 01:45:22;;;;;;;3.87;3.50;;;;;;;10.09;60.18;153951.25;5046176;28;20553;-75
2024/03/10 01:47:49;;;;;;;6.37;3.80;;;;;;;10.14;60.01;153964.25;5035182;28;20466;-75
2024/03/10 01:50:16;;;;;;;4.20;3.47;;;;;;;10.13;59.34;153961.69;5042012;28;20491;-75
2024/03/10 01:52:42;;;;;;;4.00;3.33;;;;;;;10.11;59.68;153956.44;5038238;28;20459;-75
2024/03/10 01:55:11;;;;;;;4.20;3.60;;;;;;;10.11;59.43;153956.44;4996621;28;20459;-76
2024/03/10 01:57:41;;;;;;;5.00;3.60;;;;;;;10.14;58.92;153963.00;5037428;28;20469;-75
2024/03/10 02:00:10;;;;;;;3.57;3.07;;;;;;;10.12;59.86;153959.09;5039414;28;20462;-76
2024/03/10 02:02:40;;;;;;;4.00;2.87;;;;;;;10.09;58.02;153949.97;5048068;28;20453;-75
2024/03/10 02:05:08;;;;;;;4.47;3.30;;;;;;;10.19;56.78;153975.94;5038320;28;20510;-75
2024/03/10 02:07:35;;;;;;;3.93;3.30;;;;;;;10.16;56.38;153968.16;5036543;28;21013;-75
2024/03/10 02:10:02;;;;;;;3.13;2.60;;;;;;;10.16;57.76;153969.47;5005760;28;20466;-75
2024/03/10 02:12:29;;;;;;;3.87;2.80;;;;;;;10.17;55.65;153970.72;5038884;28;20546;-76
2024/03/10 02:15:00;;;;;;;3.60;2.80;;;;;;;10.19;55.52;153977.19;5046343;28;20449;-75
2024/03/10 02:17:27;;;;;;;4.30;3.23;;;;;;;10.17;56.13;153970.72;5046903;28;20435;-75
2024/03/10 02:19:57;;;;;;;4.20;2.87;;;;;;;10.27;55.99;153996.66;5041599;28;20447;-75
2024/03/10 02:22:24;;;;;;;3.90;2.47;;;;;;;10.29;54.45;154003.13;5029844;28;20458;-75
2024/03/10 02:24:51;;;;;;;3.80;2.80;;;;;;;10.34;53.36;154014.75;5035603;28;20448;-76
2024/03/10 02:27:21;;;;;;;3.50;2.80;;;;;;;10.37;53.12;154022.53;5023045;28;20486;-75
2024/03/10 02:30:00;;;;;;;3.50;2.10;;;;;;;10.40;52.47;154030.31;5026443;28;20444;-75
2024/03/10 02:48:56;;;;;;;2.47;1.70;;;;;;;10.30;52.74;154005.69;5045230;28;20817;-76
2024/03/10 02:51:23;;;;;;;2.73;2.50;;;;;;;10.36;51.83;154019.94;5035287;28;20427;-75
2024/03/10 02:53:49;;;;;;;2.63;2.13;;;;;;;10.38;51.96;154025.09;5033467;28;21022;-75
2024/03/10 02:56:16;;;;;;;3.10;2.13;;;;;;;10.41;51.36;154032.88;5022837;28;20458;-75
2024/03/10 02:58:44;;;;;;;3.17;2.10;;;;;;;10.45;51.24;154041.94;5030581;28;20501;-75
2024/03/10 03:01:10;;;;;;;2.70;2.07;;;;;;;10.37;51.26;154022.53;5015680;28;20465;-75
2024/03/10 03:03:37;;;;;;;2.73;2.10;;;;;;;10.34;51.60;154014.75;5032635;28;20474;-75
2024/03/10 03:06:04;;;;;;;3.20;2.20;;;;;;;10.37;51.24;154022.53;5021327;28;20547;-75
2024/03/10 03:08:31;;;;;;;2.67;2.37;;;;;;;10.37;51.31;154023.84;5019497;28;20515;-75
2024/03/10 03:10:57;;;;;;;3.43;2.17;;;;;;;10.36;50.97;154021.22;5041449;28;20467;-75
2024/03/10 03:13:24;;;;;;;3.03;2.03;;;;;;;10.33;51.64;154013.47;5012173;28;20451;-75
2024/03/10 03:15:52;;;;;;;3.40;2.40;;;;;;;10.34;50.92;154014.75;5043701;28;20443;-75
2024/03/10 03:18:18;;;;;;;2.77;2.30;;;;;;;10.31;51.24;154007.00;5028584;28;20995;-76
2024/03/10 03:20:45;;;;;;;3.33;2.30;;;;;;;10.24;51.15;153990.19;5043283;28;20814;-75
2024/03/10 03:23:11;;;;;;;2.80;2.10;;;;;;;10.24;51.16;153990.19;5044756;28;20801;-75
2024/03/10 03:25:38;;;;;;;2.77;2.30;;;;;;;10.24;52.19;153988.88;5040957;28;20457;-75
2024/03/10 03:28:06;;;;;;;3.07;2.20;;;;;;;10.16;52.52;153968.16;5031678;28;20569;-75
2024/03/10 03:30:33;;;;;;;2.70;2.43;;;;;;;10.12;52.49;153959.09;5025188;28;20852;-75
2024/03/10 03:33:01;;;;;;;4.00;2.37;;;;;;;10.11;52.14;153956.44;5047760;28;20454;-75
2024/03/10 03:35:27;;;;;;;2.40;2.20;;;;;;;10.05;52.88;153939.63;5031690;28;20444;-75
2024/03/10 03:37:55;;;;;;;3.27;2.97;;;;;;;10.04;52.87;153937.03;5031709;28;20456;-75
2024/03/10 03:40:23;;;;;;;2.43;1.70;;;;;;;10.03;52.77;153934.47;5047755;28;20936;-75
2024/03/10 03:42:49;;;;;;;2.50;1.97;;;;;;;9.99;55.72;153924.09;5034012;28;20495;-75
2024/03/10 03:45:17;;;;;;;2.67;2.00;;;;;;;9.95;55.16;153913.75;5042403;28;20457;-76
2024/03/10 03:47:44;;;;;;;3.07;2.27;;;;;;;9.91;55.45;153903.38;5036477;28;20478;-75
2024/03/10 03:50:12;;;;;;;2.63;2.13;;;;;;;9.86;54.78;153890.44;5018623;28;20451;-75
2024/03/10 03:52:38;;;;;;;2.10;1.90;;;;;;;9.86;55.42;153890.44;5033241;28;20463;-75
2024/03/10 03:55:06;;;;;;;3.63;2.20;;;;;;;9.82;54.45;153881.41;5025659;28;20455;-75
2024/03/10 03:57:33;;;;;;;2.60;2.03;;;;;;;9.79;54.41;153874.91;5038181;28;20484;-76
2024/03/10 03:59:59;;;;;;;3.50;2.40;;;;;;;9.79;56.52;153874.91;5029633;28;20488;-75
2024/03/10 04:02:26;;;;;;;3.07;2.50;;;;;;;9.74;54.67;153860.72;5039108;28;20454;-75
2024/03/10 04:04:53;;;;;;;3.10;2.23;;;;;;;9.75;56.12;153863.28;5045934;28;20474;-75
2024/03/10 04:07:21;;;;;;;3.30;3.00;;;;;;;9.73;54.72;153858.09;5002471;28;20628;-75
2024/03/10 04:09:47;;;;;;;3.50;2.40;;;;;;;9.76;54.02;153867.19;5031110;28;20452;-76
2024/03/10 04:12:14;;;;;;;2.90;2.27;;;;;;;9.80;53.96;153877.50;5049758;28;20524;-76
2024/03/10 04:14:40;;;;;;;3.07;2.67;;;;;;;9.85;53.24;153887.88;5037659;28;20440;-75
2024/03/10 04:17:07;;;;;;;3.10;2.30;;;;;;;9.82;53.41;153882.69;5029182;28;20436;-75
2024/03/10 04:19:35;;;;;;;2.57;2.00;;;;;;;9.85;53.84;153887.88;5034067;28;20458;-75
2024/03/10 04:22:02;;;;;;;3.73;2.37;;;;;;;9.79;53.78;153874.91;5022275;28;20448;-75
2024/03/10 04:24:30;;;;;;;2.50;1.80;;;;;;;9.77;53.85;153868.44;5028344;28;20454;-75
2024/03/10 04:26:56;;;;;;;3.20;2.67;;;;;;;9.68;54.21;153846.47;5028635;28;20525;-76
2024/03/10 04:29:23;;;;;;;2.33;2.13;;;;;;;9.64;54.46;153836.09;5041138;28;20465;-75
2024/03/10 04:31:49;;;;;;;3.03;2.20;;;;;;;9.59;55.41;153821.88;5048406;28;20449;-75
2024/03/10 04:34:16;;;;;;;3.07;2.40;;;;;;;9.56;55.44;153814.09;5046952;28;20446;-76
2024/03/10 04:36:43;;;;;;;3.30;2.30;;;;;;;9.50;55.90;153799.91;5034330;28;20975;-75
2024/03/10 04:39:10;;;;;;;2.40;2.20;;;;;;;9.52;54.26;153803.78;5032314;28;20471;-75
2024/03/10 04:41:38;;;;;;;2.70;1.97;;;;;;;9.56;54.62;153815.41;5040288;28;20549;-75
2024/03/10 04:44:05;;;;;;;3.90;2.87;;;;;;;9.52;53.94;153805.06;5038373;28;21164;-75
2024/03/10 04:46:32;;;;;;;3.20;2.50;;;;;;;9.54;53.97;153810.25;5028788;28;20459;-75
2024/03/10 04:48:58;;;;;;;3.47;2.10;;;;;;;9.55;53.41;153812.84;5032864;28;20483;-75
2024/03/10 04:51:25;;;;;;;2.40;2.17;;;;;;;9.59;53.42;153823.16;5044938;28;20492;-75
2024/03/10 04:53:52;;;;;;;3.03;2.50;;;;;;;9.57;53.29;153818.00;5043084;28;20481;-75
2024/03/10 04:56:17;;;;;;;3.03;2.30;;;;;;;9.54;52.90;153810.25;5037820;28;20867;-75
2024/03/10 04:58:45;;;;;;;2.33;1.70;;;;;;;9.57;53.52;153816.69;5023158;28;20451;-75
2024/03/10 05:01:13;;;;;;;3.53;2.07;;;;;;;9.58;54.33;153820.56;5037311;28;20211;-75
2024/03/10 05:03:40;;;;;;;2.77;2.00;;;;;;;9.53;53.35;153807.63;5046900;28;20495;-75
2024/03/10 05:06:09;;;;;;;3.10;1.83;;;;;;;9.53;53.15;153807.63;5014835;28;20487;-75
2024/03/10 05:08:36;;;;;;;2.67;1.90;;;;;;;9.53;53.40;153807.63;5030801;28;20479;-75
2024/03/10 05:11:04;;;;;;;4.50;1.70;;;;;;;9.64;52.44;153834.81;5039617;28;20540;-75
2024/03/10 05:13:30;;;;;;;2.90;2.00;;;;;;;9.59;53.08;153823.16;5030037;28;20605;-75
2024/03/10 05:15:58;;;;;;;2.50;1.80;;;;;;;9.61;54.66;153828.34;5041966;28;20546;-75
2024/03/10 05:18:26;;;;;;;2.20;1.90;;;;;;;9.54;53.54;153810.25;5019844;28;20465;-75
2024/03/10 05:20:52;;;;;;;2.10;1.80;;;;;;;9.51;54.19;153802.47;5041608;28;21034;-75
2024/03/10 05:23:19;;;;;;;3.00;2.60;;;;;;;9.53;53.26;153807.63;5040286;28;20489;-75
2024/03/10 05:25:45;;;;;;;3.07;2.40;;;;;;;9.58;53.44;153819.31;5034809;28;20529;-75
2024/03/10 05:28:12;;;;;;;3.70;2.20;;;;;;;9.51;53.71;153801.16;5030987;28;20490;-75
2024/03/10 05:30:40;;;;;;;2.10;1.73;;;;;;;9.51;53.32;153802.47;5038795;28;20513;-75
2024/03/10 05:33:08;;;;;;;2.30;1.80;;;;;;;9.47;53.50;153792.13;5028229;28;20573;-75
2024/03/10 05:35:35;;;;;;;2.47;1.73;;;;;;;9.40;53.50;153774.00;5038809;28;20928;-75
2024/03/10 05:38:02;;;;;;;2.13;1.93;;;;;;;9.40;53.74;153774.00;5025312;28;20452;-74
2024/03/10 05:40:28;;;;;;;2.10;1.83;;;;;;;9.40;54.12;153774.00;5007341;28;20447;-75
2024/03/10 05:42:55;;;;;;;2.90;2.20;;;;;;;9.40;53.75;153774.00;5019312;28;20972;-75
2024/03/10 05:45:21;;;;;;;2.70;1.60;;;;;;;9.39;53.96;153770.13;5010356;28;20463;-75
2024/03/10 05:47:48;;;;;;;2.40;1.53;;;;;;;9.28;54.48;153742.97;5029726;28;20805;-75
2024/03/10 05:50:16;;;;;;;2.80;1.90;;;;;;;9.30;54.18;153748.13;5043231;28;20586;-75
2024/03/10 05:52:43;;;;;;;2.80;2.50;;;;;;;9.27;53.96;153740.38;5040962;28;20925;-75
2024/03/10 05:55:10;;;;;;;2.50;1.77;;;;;;;9.28;54.13;153742.97;5032054;28;20459;-75
2024/03/10 05:57:37;;;;;;;4.33;1.90;;;;;;;9.21;54.99;153724.88;5037703;28;20606;-75
2024/03/10 06:00:06;;;;;;;2.90;1.90;;;;;;;9.18;55.64;153717.13;5037171;28;20470;-75
2024/03/10 06:02:38;;;;;;;3.57;2.10;;;;;;;9.18;54.86;153717.13;5035222;28;20903;-75
2024/03/10 06:05:05;;;;;;;2.73;1.87;;;;;;;9.15;55.08;153709.34;5027584;28;20537;-75
2024/03/10 06:07:33;;;;;;;2.60;1.90;;;;;;;9.16;56.20;153711.91;5013733;28;20475;-75
2024/03/10 06:09:59;;;;;;;1.83;1.63;;;;;;;9.12;56.21;153701.59;5031216;28;20488;-75
2024/03/10 06:12:26;;;;;;;2.97;1.60;;;;;;;9.16;54.92;153711.91;5033557;28;20455;-75
2024/03/10 06:14:53;;;;;;;2.10;1.90;;;;;;;9.18;55.51;153718.41;5017418;28;20474;-75
2024/03/10 06:17:22;;;;;;;2.60;1.50;;;;;;;9.23;54.74;153730.03;5036507;28;20451;-75
2024/03/10 06:25:27;;;;;;;2.83;1.97;;;;;;;9.28;54.57;153742.97;5036951;28;20452;-75
2024/03/10 06:27:54;;;;;;;2.70;1.73;;;;;;;9.32;55.26;153753.31;5031268;28;20565;-75
2024/03/10 06:30:20;;;;;;;1.93;1.57;;;;;;;9.29;55.73;153745.59;5018394;28;20997;-75
2024/03/10 06:32:49;;;;;;;2.90;2.20;;;;;;;9.25;55.44;153735.22;5021461;28;20883;-74
2024/03/10 06:35:16;;;;;;;2.50;1.90;;;;;;;9.19;56.58;153719.69;5004434;28;20467;-74
2024/03/10 06:37:44;;;;;;;2.37;2.00;;;;;;;9.17;57.65;153715.81;5021137;28;20451;-75
2024/03/10 06:40:12;;;;;;;3.17;2.00;;;;;;;9.17;56.59;153715.81;5042463;28;20459;-75
2024/03/10 06:42:39;;;;;;;2.67;2.07;;;;;;;9.18;56.60;153717.13;5041287;28;20484;-74
2024/03/10 06:45:09;;;;;;;2.17;1.80;;;;;;;9.19;56.58;153720.97;5032528;28;20466;-75
2024/03/10 06:47:36;;;;;;;2.30;2.10;;;;;;;9.22;56.42;153726.13;5039928;28;20491;-75
2024/03/10 06:50:04;;;;;;;2.33;2.13;;;;;;;9.22;56.55;153726.13;5043644;28;20446;-75
2024/03/10 06:52:34;;;;;;;2.50;1.70;;;;;;;9.21;57.08;153723.59;5039053;28;20458;-74
2024/03/10 06:55:03;;;;;;;2.70;2.43;;;;;;;9.18;58.01;153718.41;5035804;28;20451;-74
2024/03/10 06:57:30;;;;;;;3.20;2.10;;;;;;;9.17;56.94;153714.50;5041225;28;20458;-74
2024/03/10 06:59:57;;;;;;;2.80;2.20;;;;;;;9.18;57.23;153717.13;5039113;28;20455;-74
2024/03/10 07:02:24;;;;;;;3.70;2.90;;;;;;;9.19;57.15;153719.69;5037634;28;20823;-74
2024/03/10 07:04:50;;;;;;;2.60;2.23;;;;;;;9.18;58.80;153717.13;5038187;28;20970;-74
2024/03/10 07:07:17;;;;;;;2.53;2.00;;;;;;;9.19;61.65;153720.97;5040581;28;20459;-74
2024/03/10 07:09:44;;;;;;;2.77;2.20;;;;;;;9.12;64.64;153702.88;5036380;28;20474;-74
2024/03/10 07:12:12;;;;;;;2.60;1.90;;;;;;;9.08;66.78;153691.25;5038151;28;20459;-74
2024/03/10 07:14:39;;;;;;;2.97;2.10;;;;;;;8.98;65.30;153665.34;5038921;28;20578;-75
2024/03/10 07:17:06;;;;;;;2.33;2.13;;;;;;;9.03;59.74;153679.59;5041284;28;20458;-75
2024/03/10 07:19:34;;;;;;;2.50;2.00;;;;;;;9.18;58.03;153718.41;5038018;28;20447;-75
2024/03/10 07:22:00;;;;;;;2.80;2.10;;;;;;;9.26;58.28;153737.81;5027689;28;20439;-75
2024/03/10 07:24:27;;;;;;;2.67;1.77;;;;;;;9.22;57.18;153727.44;5020334;28;20466;-75
2024/03/10 07:26:54;;;;;;;2.80;2.30;;;;;;;9.27;57.15;153740.38;5039696;28;20461;-75
2024/03/10 07:29:22;;;;;;;3.07;2.00;;;;;;;9.33;57.31;153755.91;5041840;28;20485;-74
2024/03/10 07:31:49;;;;;;;2.30;1.60;;;;;;;9.35;58.07;153761.06;5027783;28;20489;-75
2024/03/10 07:34:16;;;;;;;2.93;2.13;;;;;;;9.26;58.50;153736.50;5021237;28;20458;-74
2024/03/10 07:36:42;;;;;;;3.37;2.17;;;;;;;9.25;58.15;153735.22;5028342;28;20459;-74
2024/03/10 07:39:10;;;;;;;3.37;2.10;;;;;;;9.25;58.22;153735.22;5039098;28;20447;-74
2024/03/10 07:41:37;;;;;;;3.03;2.17;;;;;;;9.21;58.57;153724.88;5039227;28;20519;-74
2024/03/10 07:44:04;;;;;;;4.93;2.10;;;;;;;9.21;59.81;153724.88;5040752;28;20794;-75
2024/03/10 07:46:32;;;;;;;3.27;2.07;;;;;;;9.25;59.12;153735.22;5023322;28;20521;-75
2024/03/10 07:49:00;;;;;;;2.60;1.97;;;;;;;9.28;58.52;153742.97;5040982;28;20578;-75
2024/03/10 07:51:30;;;;;;;3.13;2.13;;;;;;;9.30;58.99;153748.13;5041553;28;20482;-75
2024/03/10 07:53:57;;;;;;;3.23;2.30;;;;;;;9.33;59.65;153754.59;5025202;28;20448;-75
2024/03/10 07:56:24;;;;;;;3.63;1.97;;;;;;;9.41;59.02;153775.31;5038778;28;20451;-74
2024/03/10 07:58:51;;;;;;;2.10;1.77;;;;;;;9.53;59.42;153806.38;5039082;28;20456;-75
2024/03/10 08:01:17;;;;;;;5.30;3.97;;;;;;;9.82;63.50;153880.13;5038468;28;20512;-75
2024/03/10 08:03:45;;;;;;;2.53;2.30;;;;;;;10.18;62.64;153973.34;5028082;28;20821;-75
2024/03/10 08:06:15;;;;;;;1.97;1.33;;;;;;;10.37;57.84;154023.84;5040325;28;20455;-76
2024/03/10 08:08:42;;;;;;;5.50;4.67;;;;;;;10.52;55.09;154061.34;5038221;28;20475;-76
2024/03/10 08:11:09;;;;;;;4.90;4.37;;;;;;;10.63;55.66;154088.56;5027202;28;20455;-76
2024/03/10 08:13:36;;;;;;;2.20;1.53;;;;;;;10.60;54.47;154082.06;5038898;28;20600;-76
2024/03/10 08:16:02;;;;;;;2.10;1.90;;;;;;;10.55;53.09;154067.84;5041246;28;20472;-76
2024/03/10 08:18:29;;;;;;;11.37;9.27;;;;;;;10.53;53.29;154063.97;5040311;28;20447;-75
2024/03/10 08:20:57;;;;;;;7.23;5.93;;;;;;;10.51;53.64;154057.50;5035777;28;20455;-76
2024/03/10 08:23:23;;;;;;;3.20;1.87;;;;;;;10.47;54.00;154048.41;5041654;28;20454;-76
2024/03/10 08:25:53;;;;;;;2.60;2.10;;;;;;;10.44;54.14;154040.63;5038814;28;20508;-76
2024/03/10 08:28:23;;;;;;;2.10;1.67;;;;;;;10.47;54.75;154048.41;5022316;28;21045;-75
2024/03/10 08:30:50;;;;;;;2.20;1.80;;;;;;;10.48;54.51;154051.03;5038633;28;20583;-76
2024/03/10 08:33:17;;;;;;;1.97;1.70;;;;;;;10.45;53.75;154041.94;5041854;28;20454;-75
2024/03/10 08:35:43;;;;;;;1.83;1.40;;;;;;;10.47;52.74;154048.41;5036194;28;20455;-75
2024/03/10 08:38:12;;;;;;;3.00;1.40;;;;;;;10.52;54.45;154061.34;5039524;28;20439;-75
2024/03/10 08:40:38;;;;;;;4.93;2.17;;;;;;;10.52;54.09;154060.06;5038573;28;20462;-75
2024/03/10 08:43:05;;;;;;;3.40;1.87;;;;;;;10.53;53.88;154062.66;5056629;23;20505;-75
2024/03/10 08:45:33;;;;;;;5.10;3.80;;;;;;;10.54;54.82;154066.53;5018977;28;20452;-76
2024/03/10 08:48:00;;;;;;;1.70;1.50;;;;;;;10.57;54.31;154074.31;5039239;28;20791;-75
2024/03/10 08:50:28;;;;;;;2.50;1.93;;;;;;;10.60;53.93;154080.78;5034869;28;20470;-75
2024/03/10 08:52:54;;;;;;;1.77;1.60;;;;;;;10.57;52.86;154074.31;5022811;28;20746;-75
2024/03/10 08:55:23;;;;;;;2.10;1.60;;;;;;;10.59;53.09;154078.22;5036585;28;20938;-76
2024/03/10 08:57:49;;;;;;;1.60;1.37;;;;;;;10.61;52.56;154084.69;5019129;28;20956;-76
2024/03/10 09:00:17;;;;;;;1.40;1.20;;;;;;;10.65;53.37;154093.72;5033266;28;20455;-76
2024/03/10 09:02:44;;;;;;;1.80;1.60;;;;;;;10.68;53.89;154102.78;5039442;28;20457;-76
2024/03/10 09:05:12;;;;;;;2.50;1.73;;;;;;;10.74;54.64;154118.34;5018519;28;20463;-76
2024/03/10 09:07:39;;;;;;;3.70;2.57;;;;;;;10.74;54.19;154118.34;5023102;28;20980;-76
2024/03/10 09:10:08;;;;;;;1.97;1.67;;;;;;;10.75;55.47;154120.91;5036363;28;20475;-76
2024/03/10 09:12:36;;;;;;;2.43;1.50;;;;;;;10.78;56.14;154127.38;5004338;28;20544;-75
2024/03/10 09:15:03;;;;;;;3.00;2.10;;;;;;;10.86;55.61;154148.09;5023707;28;20462;-76
2024/03/10 09:17:29;;;;;;;3.10;2.20;;;;;;;10.92;55.64;154164.97;5038390;28;20815;-76
2024/03/10 09:19:58;;;;;;;2.30;1.80;;;;;;;10.99;54.70;154183.09;5035330;28;20453;-76
2024/03/10 09:22:25;;;;;;;2.00;1.80;;;;;;;11.02;54.57;154189.56;5037441;28;20825;-76
2024/03/10 09:24:51;;;;;;;2.10;1.90;;;;;;;11.11;57.54;154211.59;5025737;28;20443;-76
2024/03/10 09:27:19;;;;;;;2.97;2.20;;;;;;;11.15;55.50;154221.94;5033165;28;20470;-75
2024/03/10 09:29:47;;;;;;;4.13;1.90;;;;;;;11.22;55.87;154241.41;5032299;28;21256;-76
2024/03/10 09:32:19;;;;;;;2.30;1.77;;;;;;;11.26;53.96;154251.75;5017188;28;20463;-76
2024/03/10 09:34:46;;;;;;;2.10;1.80;;;;;;;11.36;53.78;154277.63;5016707;28;20833;-76
2024/03/10 09:37:13;;;;;;;8.50;6.80;;;;;;;11.42;52.65;154291.91;5017525;28;20455;-76
2024/03/10 09:39:39;;;;;;;6.03;4.83;;;;;;;11.48;52.22;154308.75;5036058;28;20454;-76
2024/03/10 09:42:06;;;;;;;15.13;13.60;;;;;;;11.61;51.63;154341.16;5035652;28;20483;-76
2024/03/10 09:44:33;;;;;;;2.30;2.10;;;;;;;11.67;52.08;154355.41;5037887;28;20460;-76
2024/03/10 09:47:01;;;;;;;2.60;1.80;;;;;;;11.74;52.11;154374.88;5034134;28;20920;-76
2024/03/10 09:49:28;;;;;;;2.57;2.10;;;;;;;11.80;53.17;154390.44;5036971;28;20953;-76
2024/03/10 09:51:56;;;;;;;4.03;2.50;;;;;;;11.86;54.36;154405.97;5018196;28;20455;-76
2024/03/10 09:54:23;;;;;;;2.13;1.93;;;;;;;11.84;54.36;154399.50;5035237;28;20475;-76
2024/03/10 09:56:50;;;;;;;2.60;1.90;;;;;;;11.77;53.17;154382.66;5036160;28;20466;-76
2024/03/10 09:59:22;;;;;;;2.87;2.43;;;;;;;11.72;53.81;154369.72;5034892;28;20549;-76
2024/03/10 10:01:50;;;;;;;3.20;2.17;;;;;;;11.67;54.52;154356.72;5036929;28;20827;-76
2024/03/10 10:04:19;;;;;;;3.07;1.90;;;;;;;11.70;54.39;154364.53;5032832;28;20454;-76
2024/03/10 10:06:46;;;;;;;7.70;2.93;;;;;;;11.74;54.79;154374.88;5036800;28;20451;-76
2024/03/10 10:09:13;;;;;;;2.40;2.00;;;;;;;11.77;55.63;154382.66;5036853;28;20506;-75
2024/03/10 10:11:40;;;;;;;3.00;1.93;;;;;;;11.79;54.69;154387.84;5031531;28;20587;-75
2024/03/10 10:14:07;;;;;;;2.80;2.00;;;;;;;11.79;56.05;154387.84;5035844;28;20466;-76
2024/03/10 10:16:34;;;;;;;2.47;1.90;;;;;;;11.80;54.05;154390.44;5039045;28;20826;-75
2024/03/10 10:19:03;;;;;;;2.13;1.80;;;;;;;11.81;54.06;154393.00;5023277;28;20460;-75
2024/03/10 10:21:31;;;;;;;2.97;2.43;;;;;;;11.81;54.54;154393.00;5034142;28;20478;-74
2024/03/10 10:23:57;;;;;;;4.27;2.00;;;;;;;11.81;54.17;154391.75;5033223;28;20590;-75
2024/03/10 10:26:24;;;;;;;2.53;2.30;;;;;;;11.80;55.89;154390.44;5035934;28;20553;-75
2024/03/10 10:29:06;;;;;;;5.20;1.80;;;;;;;11.81;56.44;154391.75;5037676;28;20463;-77
2024/03/10 10:31:33;;;;;;;2.17;1.97;;;;;;;11.83;55.81;154396.94;4999393;28;20466;-76
2024/03/10 10:34:00;;;;;;;3.43;2.80;;;;;;;11.82;56.85;154395.63;5034925;28;20506;-77
2024/03/10 10:36:27;;;;;;;3.30;2.40;;;;;;;11.76;55.97;154380.06;5039518;28;20831;-88
2024/03/10 10:38:55;;;;;;;2.53;2.10;;;;;;;11.76;56.04;154378.75;5024866;28;20956;-88
2024/03/10 10:41:22;;;;;;;3.57;2.40;;;;;;;11.75;57.37;154376.19;5019567;28;20817;-88
2024/03/10 10:43:48;;;;;;;3.20;2.07;;;;;;;11.71;56.55;154367.09;5040538;28;20450;-88
2024/03/10 10:46:15;;;;;;;2.60;2.33;;;;;;;11.70;56.13;154364.53;5023707;28;20462;-88
2024/03/10 10:48:45;;;;;;;2.60;2.00;;;;;;;11.69;56.79;154360.63;5020003;28;20455;-88
2024/03/10 10:51:14;;;;;;;3.50;2.27;;;;;;;11.68;56.30;154359.28;5019546;28;21037;-88
2024/03/10 10:53:43;;;;;;;3.93;2.07;;;;;;;11.73;56.39;154372.28;5022043;28;20979;-89
2024/03/10 10:56:11;;;;;;;3.53;1.97;;;;;;;11.74;55.64;154373.59;5020880;28;20458;-88
2024/03/10 10:58:37;;;;;;;2.30;1.70;;;;;;;11.78;56.38;154385.22;5036465;28;20471;-88
2024/03/10 11:01:05;;;;;;;2.33;1.57;;;;;;;11.85;55.76;154403.41;5025272;28;20973;-89
2024/03/10 11:03:36;;;;;;;2.30;2.10;;;;;;;11.88;57.14;154409.88;5043363;28;20537;-89
2024/03/10 11:06:30;;;;;;;2.80;2.40;;;;;;;11.83;57.20;154398.22;5040891;28;20475;-88
2024/03/10 11:08:57;;;;;;;2.10;1.90;;;;;;;11.82;58.38;154395.63;5039530;28;20451;-88
2024/03/10 11:11:51;;;;;;;4.43;1.97;;;;;;;11.80;58.32;154390.44;5038973;28;20454;-87
2024/03/10 11:14:21;;;;;;;2.43;2.03;;;;;;;11.78;57.49;154385.22;5041749;28;21665;-89
2024/03/10 11:16:47;;;;;;;2.27;1.80;;;;;;;11.79;57.79;154387.84;5041472;28;20455;-88
2024/03/10 11:19:18;;;;;;;2.03;1.80;;;;;;;11.78;57.57;154385.22;5041593;28;20455;-88
2024/03/10 11:21:47;;;;;;;2.93;2.00;;;;;;;11.81;57.43;154393.00;5021692;28;21064;-88
2024/03/10 11:24:17;;;;;;;3.63;2.23;;;;;;;11.83;57.28;154396.94;5040069;28;20458;-88
2024/03/10 11:26:47;;;;;;;4.63;1.90;;;;;;;11.84;58.29;154400.78;5041242;28;20455;-89
2024/03/10 11:29:27;;;;;;;2.30;1.90;;;;;;;11.86;56.80;154405.97;5039406;28;20561;-88
2024/03/10 11:31:57;;;;;;;2.57;2.20;;;;;;;11.88;57.10;154409.88;5029063;28;21076;-88
2024/03/10 11:34:25;;;;;;;3.17;1.87;;;;;;;11.92;57.74;154421.53;5039961;28;20455;-88
2024/03/10 11:36:51;;;;;;;2.53;1.80;;;;;;;11.90;55.67;154416.38;5039793;28;20458;-88
2024/03/10 11:39:20;;;;;;;1.80;1.60;;;;;;;11.87;56.45;154408.56;5041348;28;20508;-87
2024/03/10 11:41:48;;;;;;;2.20;1.80;;;;;;;11.90;56.29;154416.38;5039319;28;20486;-87
2024/03/10 11:44:15;;;;;;;1.97;1.73;;;;;;;11.94;56.61;154426.72;5040651;28;20858;-87
2024/03/10 11:46:43;;;;;;;2.10;1.70;;;;;;;11.95;57.01;154428.00;5028006;28;20491;-87
2024/03/10 11:49:11;;;;;;;2.30;1.77;;;;;;;11.91;56.50;154418.97;5036601;28;20540;-86
2024/03/10 11:51:39;;;;;;;2.23;1.90;;;;;;;11.92;55.74;154421.53;5020281;28;20574;-87
2024/03/10 11:54:11;;;;;;;3.00;1.83;;;;;;;11.90;56.36;154416.38;5040780;28;20965;-87